sensor_id;sensor_type;location;lat;lon;timestamp;P1;durP1;ratioP1;P2;durP2;ratioP2
73951;SDS011;62304;47.662;18.324;2023-03-21T00:01:29;17.35;;;10.27;;
73951;SDS011;62304;47.662;18.324;2023-03-21T00:04:32;17.17;;;10.55;;
73951;SDS011;62304;47.662;18.324;2023-03-21T00:07:52;20.58;;;10.85;;
73951;SDS011;62304;47.662;18.324;2023-03-21T00:10:58;19.90;;;11.07;;
73951;SDS011;62304;47.662;18.324;2023-03-21T00:14:06;21.40;;;11.67;;
73951;SDS011;62304;47.662;18.324;2023-03-21T00:17:10;19.40;;;10.98;;
73951;SDS011;62304;47.662;18.324;2023-03-21T00:20:13;22.00;;;11.77;;
73951;SDS011;62304;47.662;18.324;2023-03-21T00:23:19;22.17;;;12.00;;
73951;SDS011;62304;47.662;18.324;2023-03-21T00:26:22;26.20;;;12.30;;
73951;SDS011;62304;47.662;18.324;2023-03-21T00:29:25;25.23;;;12.20;;
73951;SDS011;62304;47.662;18.324;2023-03-21T00:32:28;21.52;;;12.32;;
73951;SDS011;62304;47.662;18.324;2023-03-21T00:35:31;26.80;;;12.02;;
73951;SDS011;62304;47.662;18.324;2023-03-21T00:38:53;20.75;;;11.70;;
73951;SDS011;62304;47.662;18.324;2023-03-21T00:41:57;20.40;;;11.17;;
73951;SDS011;62304;47.662;18.324;2023-03-21T00:45:00;20.50;;;11.50;;
73951;SDS011;62304;47.662;18.324;2023-03-21T00:48:03;23.15;;;11.30;;
73951;SDS011;62304;47.662;18.324;2023-03-21T00:51:11;22.02;;;11.35;;
73951;SDS011;62304;47.662;18.324;2023-03-21T00:54:20;21.45;;;11.65;;
73951;SDS011;62304;47.662;18.324;2023-03-21T00:57:23;22.80;;;11.70;;
73951;SDS011;62304;47.662;18.324;2023-03-21T01:00:41;21.27;;;11.47;;
73951;SDS011;62304;47.662;18.324;2023-03-21T01:03:44;23.27;;;12.52;;
73951;SDS011;62304;47.662;18.324;2023-03-21T01:06:53;19.50;;;10.95;;
73951;SDS011;62304;47.662;18.324;2023-03-21T01:09:56;20.23;;;11.12;;
73951;SDS011;62304;47.662;18.324;2023-03-21T01:13:00;18.57;;;10.87;;
73951;SDS011;62304;47.662;18.324;2023-03-21T01:16:04;17.97;;;11.27;;
73951;SDS011;62304;47.662;18.324;2023-03-21T01:19:11;23.48;;;11.98;;
73951;SDS011;62304;47.662;18.324;2023-03-21T01:22:28;24.45;;;12.02;;
73951;SDS011;62304;47.662;18.324;2023-03-21T01:25:32;20.12;;;11.15;;
73951;SDS011;62304;47.662;18.324;2023-03-21T01:28:35;19.63;;;11.60;;
73951;SDS011;62304;47.662;18.324;2023-03-21T01:31:39;19.17;;;11.10;;
73951;SDS011;62304;47.662;18.324;2023-03-21T01:34:42;22.10;;;11.40;;
73951;SDS011;62304;47.662;18.324;2023-03-21T01:37:45;23.67;;;11.73;;
73951;SDS011;62304;47.662;18.324;2023-03-21T01:40:50;18.48;;;11.48;;
73951;SDS011;62304;47.662;18.324;2023-03-21T01:43:54;20.50;;;11.80;;
73951;SDS011;62304;47.662;18.324;2023-03-21T01:47:00;20.07;;;11.50;;
73951;SDS011;62304;47.662;18.324;2023-03-21T01:50:14;18.52;;;10.65;;
73951;SDS011;62304;47.662;18.324;2023-03-21T01:53:19;19.85;;;11.20;;
73951;SDS011;62304;47.662;18.324;2023-03-21T01:56:30;20.95;;;11.45;;
73951;SDS011;62304;47.662;18.324;2023-03-21T01:59:45;19.50;;;10.53;;
73951;SDS011;62304;47.662;18.324;2023-03-21T02:02:56;22.40;;;10.40;;
73951;SDS011;62304;47.662;18.324;2023-03-21T02:06:19;18.77;;;11.25;;
73951;SDS011;62304;47.662;18.324;2023-03-21T02:09:24;18.62;;;10.80;;
73951;SDS011;62304;47.662;18.324;2023-03-21T02:12:33;18.87;;;11.10;;
73951;SDS011;62304;47.662;18.324;2023-03-21T02:15:37;19.33;;;10.50;;
73951;SDS011;62304;47.662;18.324;2023-03-21T02:46:33;17.35;;;10.15;;
73951;SDS011;62304;47.662;18.324;2023-03-21T02:50:02;18.50;;;9.87;;
73951;SDS011;62304;47.662;18.324;2023-03-21T02:53:14;17.17;;;8.80;;
73951;SDS011;62304;47.662;18.324;2023-03-21T02:56:21;18.00;;;9.75;;
73951;SDS011;62304;47.662;18.324;2023-03-21T02:59:28;17.48;;;10.13;;
73951;SDS011;62304;47.662;18.324;2023-03-21T03:02:36;17.17;;;9.68;;
73951;SDS011;62304;47.662;18.324;2023-03-21T03:06:03;17.90;;;10.03;;
73951;SDS011;62304;47.662;18.324;2023-03-21T03:16:10;18.35;;;9.90;;
73951;SDS011;62304;47.662;18.324;2023-03-21T03:18:59;19.70;;;11.38;;
73951;SDS011;62304;47.662;18.324;2023-03-21T03:25:12;20.43;;;10.67;;
73951;SDS011;62304;47.662;18.324;2023-03-21T03:28:41;19.52;;;10.80;;
73951;SDS011;62304;47.662;18.324;2023-03-21T03:31:52;17.52;;;10.48;;
73951;SDS011;62304;47.662;18.324;2023-03-21T03:35:04;20.20;;;10.77;;
73951;SDS011;62304;47.662;18.324;2023-03-21T03:38:09;17.27;;;10.37;;
73951;SDS011;62304;47.662;18.324;2023-03-21T03:41:17;20.43;;;9.93;;
73951;SDS011;62304;47.662;18.324;2023-03-21T03:44:27;19.73;;;10.10;;
73951;SDS011;62304;47.662;18.324;2023-03-21T03:47:42;17.85;;;9.98;;
73951;SDS011;62304;47.662;18.324;2023-03-21T03:51:06;20.35;;;10.13;;
73951;SDS011;62304;47.662;18.324;2023-03-21T03:54:32;16.17;;;9.37;;
73951;SDS011;62304;47.662;18.324;2023-03-21T03:57:48;19.40;;;10.50;;
73951;SDS011;62304;47.662;18.324;2023-03-21T04:00:52;20.65;;;9.65;;
73951;SDS011;62304;47.662;18.324;2023-03-21T04:03:57;20.37;;;11.63;;
73951;SDS011;62304;47.662;18.324;2023-03-21T04:07:14;18.92;;;10.50;;
73951;SDS011;62304;47.662;18.324;2023-03-21T04:10:18;22.83;;;11.10;;
73951;SDS011;62304;47.662;18.324;2023-03-21T04:13:25;21.47;;;11.27;;
73951;SDS011;62304;47.662;18.324;2023-03-21T04:16:33;21.98;;;10.73;;
73951;SDS011;62304;47.662;18.324;2023-03-21T04:19:37;18.10;;;10.93;;
73951;SDS011;62304;47.662;18.324;2023-03-21T04:22:40;18.95;;;11.02;;
73951;SDS011;62304;47.662;18.324;2023-03-21T04:25:43;18.87;;;10.80;;
73951;SDS011;62304;47.662;18.324;2023-03-21T04:29:00;21.33;;;10.43;;
73951;SDS011;62304;47.662;18.324;2023-03-21T04:32:08;21.40;;;10.32;;
73951;SDS011;62304;47.662;18.324;2023-03-21T04:35:18;28.62;;;10.80;;
73951;SDS011;62304;47.662;18.324;2023-03-21T04:38:22;23.65;;;11.55;;
73951;SDS011;62304;47.662;18.324;2023-03-21T04:41:26;20.60;;;10.70;;
73951;SDS011;62304;47.662;18.324;2023-03-21T04:44:30;19.43;;;10.47;;
73951;SDS011;62304;47.662;18.324;2023-03-21T04:47:33;17.52;;;9.85;;
73951;SDS011;62304;47.662;18.324;2023-03-21T04:50:38;19.45;;;10.23;;
73951;SDS011;62304;47.662;18.324;2023-03-21T04:53:42;23.20;;;10.85;;
73951;SDS011;62304;47.662;18.324;2023-03-21T04:56:47;20.63;;;10.10;;
73951;SDS011;62304;47.662;18.324;2023-03-21T04:59:50;19.60;;;10.53;;
73951;SDS011;62304;47.662;18.324;2023-03-21T05:02:53;20.98;;;10.95;;
